sensor_id;sensor_type;location;lat;lon;timestamp;pressure;altitude;pressure_sealevel;temperature;humidity
61908;BME280;47864;52.526;19.672;2023-04-08T00:01:31;101446.50;;;8.04;100.00
61908;BME280;47864;52.526;19.672;2023-04-08T00:03:33;101450.47;;;7.98;100.00
61908;BME280;47864;52.526;19.672;2023-04-08T00:05:34;101456.13;;;7.81;100.00
61908;BME280;47864;52.526;19.672;2023-04-08T00:07:36;101446.94;;;7.74;100.00
61908;BME280;47864;52.526;19.672;2023-04-08T00:09:37;101452.47;;;7.71;100.00
61908;BME280;47864;52.526;19.672;2023-04-08T00:11:39;101450.56;;;7.73;100.00
61908;BME280;47864;52.526;19.672;2023-04-08T00:13:41;101455.03;;;7.60;100.00
61908;BME280;47864;52.526;19.672;2023-04-08T00:15:42;101451.56;;;7.23;100.00
61908;BME280;47864;52.526;19.672;2023-04-08T00:17:44;101456.06;;;7.34;100.00
61908;BME280;47864;52.526;19.672;2023-04-08T00:19:45;101461.38;;;7.21;100.00
61908;BME280;47864;52.526;19.672;2023-04-08T00:21:47;101457.78;;;7.22;100.00
61908;BME280;47864;52.526;19.672;2023-04-08T00:23:48;101456.09;;;7.21;100.00
61908;BME280;47864;52.526;19.672;2023-04-08T00:25:50;101466.25;;;7.14;100.00
61908;BME280;47864;52.526;19.672;2023-04-08T00:27:52;101462.53;;;7.17;100.00
61908;BME280;47864;52.526;19.672;2023-04-08T00:29:53;101458.09;;;7.17;100.00
61908;BME280;47864;52.526;19.672;2023-04-08T00:31:55;101468.13;;;7.12;100.00
61908;BME280;47864;52.526;19.672;2023-04-08T00:33:57;101466.25;;;7.14;100.00
61908;BME280;47864;52.526;19.672;2023-04-08T00:35:59;101467.94;;;7.15;100.00
61908;BME280;47864;52.526;19.672;2023-04-08T00:38:00;101461.16;;;7.24;100.00
61908;BME280;47864;52.526;19.672;2023-04-08T00:40:02;101466.97;;;7.16;100.00
61908;BME280;47864;52.526;19.672;2023-04-08T00:42:03;101451.91;;;7.06;100.00
61908;BME280;47864;52.526;19.672;2023-04-08T00:44:05;101472.97;;;7.18;100.00
61908;BME280;47864;52.526;19.672;2023-04-08T00:46:06;101468.56;;;7.06;100.00
61908;BME280;47864;52.526;19.672;2023-04-08T00:48:09;101472.38;;;7.15;100.00
61908;BME280;47864;52.526;19.672;2023-04-08T00:50:11;101471.09;;;7.08;100.00
61908;BME280;47864;52.526;19.672;2023-04-08T00:52:12;101475.94;;;7.14;100.00
61908;BME280;47864;52.526;19.672;2023-04-08T00:54:14;101483.44;;;7.20;100.00
61908;BME280;47864;52.526;19.672;2023-04-08T00:56:15;101478.19;;;7.07;100.00
61908;BME280;47864;52.526;19.672;2023-04-08T00:58:17;101476.56;;;7.17;100.00
61908;BME280;47864;52.526;19.672;2023-04-08T01:00:19;101479.13;;;7.06;100.00
61908;BME280;47864;52.526;19.672;2023-04-08T01:02:47;101489.13;;;7.14;100.00
61908;BME280;47864;52.526;19.672;2023-04-08T01:04:59;101483.97;;;6.87;100.00
61908;BME280;47864;52.526;19.672;2023-04-08T01:09:17;101491.13;;;6.72;100.00
61908;BME280;47864;52.526;19.672;2023-04-08T01:11:19;101490.81;;;6.77;100.00
61908;BME280;47864;52.526;19.672;2023-04-08T01:13:22;101486.72;;;6.73;100.00
61908;BME280;47864;52.526;19.672;2023-04-08T01:15:28;101480.59;;;6.85;100.00
61908;BME280;47864;52.526;19.672;2023-04-08T01:17:32;101496.31;;;6.86;100.00
61908;BME280;47864;52.526;19.672;2023-04-08T01:19:37;101500.41;;;6.65;100.00
61908;BME280;47864;52.526;19.672;2023-04-08T01:21:39;101504.38;;;6.45;100.00
61908;BME280;47864;52.526;19.672;2023-04-08T01:25:55;101508.81;;;6.18;100.00
61908;BME280;47864;52.526;19.672;2023-04-08T01:27:59;101507.25;;;6.16;100.00
61908;BME280;47864;52.526;19.672;2023-04-08T01:30:05;101505.50;;;6.29;100.00
61908;BME280;47864;52.526;19.672;2023-04-08T01:32:08;101492.97;;;6.32;100.00
61908;BME280;47864;52.526;19.672;2023-04-08T01:34:12;101486.19;;;6.28;100.00
61908;BME280;47864;52.526;19.672;2023-04-08T01:36:14;101505.84;;;6.37;100.00
61908;BME280;47864;52.526;19.672;2023-04-08T01:38:19;101501.25;;;6.26;100.00
61908;BME280;47864;52.526;19.672;2023-04-08T01:40:20;101498.94;;;6.22;100.00
61908;BME280;47864;52.526;19.672;2023-04-08T01:42:24;101507.72;;;6.35;100.00
61908;BME280;47864;52.526;19.672;2023-04-08T01:44:26;101509.78;;;6.17;100.00
61908;BME280;47864;52.526;19.672;2023-04-08T01:46:29;101503.53;;;6.05;100.00
61908;BME280;47864;52.526;19.672;2023-04-08T01:48:32;101517.00;;;6.01;100.00
61908;BME280;47864;52.526;19.672;2023-04-08T01:50:34;101513.41;;;6.02;100.00
61908;BME280;47864;52.526;19.672;2023-04-08T01:52:37;101515.41;;;5.84;100.00
61908;BME280;47864;52.526;19.672;2023-04-08T01:54:39;101527.16;;;5.79;100.00
61908;BME280;47864;52.526;19.672;2023-04-08T01:56:43;101528.69;;;5.68;100.00
61908;BME280;47864;52.526;19.672;2023-04-08T01:58:49;101526.06;;;5.54;100.00
61908;BME280;47864;52.526;19.672;2023-04-08T02:00:53;101512.47;;;5.48;100.00
61908;BME280;47864;52.526;19.672;2023-04-08T02:02:56;101527.19;;;5.64;100.00
61908;BME280;47864;52.526;19.672;2023-04-08T02:04:58;101522.47;;;5.69;100.00
61908;BME280;47864;52.526;19.672;2023-04-08T02:07:00;101529.28;;;5.59;100.00
61908;BME280;47864;52.526;19.672;2023-04-08T02:09:02;101533.88;;;5.56;100.00
61908;BME280;47864;52.526;19.672;2023-04-08T02:11:03;101543.66;;;5.40;100.00
61908;BME280;47864;52.526;19.672;2023-04-08T02:13:05;101534.84;;;5.41;100.00
61908;BME280;47864;52.526;19.672;2023-04-08T02:15:07;101546.38;;;5.52;100.00
61908;BME280;47864;52.526;19.672;2023-04-08T02:17:12;101543.09;;;5.49;100.00
61908;BME280;47864;52.526;19.672;2023-04-08T02:19:34;101540.56;;;5.47;100.00
61908;BME280;47864;52.526;19.672;2023-04-08T02:21:42;101551.09;;;5.33;100.00
61908;BME280;47864;52.526;19.672;2023-04-08T02:23:47;101552.41;;;5.40;100.00
61908;BME280;47864;52.526;19.672;2023-04-08T02:25:51;101533.69;;;5.45;100.00
61908;BME280;47864;52.526;19.672;2023-04-08T02:27:54;101549.94;;;5.65;100.00
61908;BME280;47864;52.526;19.672;2023-04-08T02:29:57;101538.75;;;5.76;100.00
61908;BME280;47864;52.526;19.672;2023-04-08T02:32:01;101552.72;;;6.05;100.00
61908;BME280;47864;52.526;19.672;2023-04-08T02:34:04;101533.78;;;6.13;100.00
61908;BME280;47864;52.526;19.672;2023-04-08T02:36:08;101563.19;;;6.19;100.00
61908;BME280;47864;52.526;19.672;2023-04-08T02:38:11;101556.81;;;6.23;100.00
61908;BME280;47864;52.526;19.672;2023-04-08T02:40:32;101558.69;;;6.21;100.00
61908;BME280;47864;52.526;19.672;2023-04-08T02:42:34;101556.16;;;6.20;100.00
61908;BME280;47864;52.526;19.672;2023-04-08T02:44:36;101569.75;;;6.26;100.00
61908;BME280;47864;52.526;19.672;2023-04-08T02:46:37;101551.97;;;6.30;100.00
61908;BME280;47864;52.526;19.672;2023-04-08T02:48:39;101567.47;;;6.34;100.00
61908;BME280;47864;52.526;19.672;2023-04-08T02:50:40;101570.34;;;6.44;100.00
61908;BME280;47864;52.526;19.672;2023-04-08T02:52:42;101571.81;;;6.35;100.00
61908;BME280;47864;52.526;19.672;2023-04-08T02:54:43;101571.09;;;6.46;100.00
61908;BME280;47864;52.526;19.672;2023-04-08T02:56:45;101575.69;;;6.57;100.00
61908;BME280;47864;52.526;19.672;2023-04-08T02:58:46;101573.81;;;6.71;100.00
61908;BME280;47864;52.526;19.672;2023-04-08T03:00:48;101571.50;;;6.79;100.00
61908;BME280;47864;52.526;19.672;2023-04-08T03:02:50;101568.13;;;6.77;100.00
61908;BME280;47864;52.526;19.672;2023-04-08T03:04:52;101574.91;;;6.81;100.00
61908;BME280;47864;52.526;19.672;2023-04-08T03:06:53;101574.47;;;6.87;100.00
61908;BME280;47864;52.526;19.672;2023-04-08T03:08:55;101573.50;;;6.76;100.00
61908;BME280;47864;52.526;19.672;2023-04-08T03:10:56;101576.25;;;6.74;100.00
61908;BME280;47864;52.526;19.672;2023-04-08T03:12:58;101572.69;;;6.88;100.00
61908;BME280;47864;52.526;19.672;2023-04-08T03:14:59;101568.78;;;6.94;100.00
61908;BME280;47864;52.526;19.672;2023-04-08T03:17:01;101568.78;;;6.94;100.00
61908;BME280;47864;52.526;19.672;2023-04-08T03:19:03;101561.28;;;7.00;100.00
61908;BME280;47864;52.526;19.672;2023-04-08T03:21:04;101570.28;;;6.98;100.00
61908;BME280;47864;52.526;19.672;2023-04-08T03:23:06;101562.28;;;6.99;100.00
61908;BME280;47864;52.526;19.672;2023-04-08T03:25:08;101568.59;;;7.09;100.00
61908;BME280;47864;52.526;19.672;2023-04-08T03:27:09;101569.53;;;7.08;100.00
61908;BME280;47864;52.526;19.672;2023-04-08T03:29:11;101575.56;;;6.98;100.00
61908;BME280;47864;52.526;19.672;2023-04-08T03:31:12;101569.84;;;6.91;100.00
61908;BME280;47864;52.526;19.672;2023-04-08T03:33:14;101573.63;;;6.87;100.00
61908;BME280;47864;52.526;19.672;2023-04-08T03:35:15;101574.81;;;6.83;100.00
61908;BME280;47864;52.526;19.672;2023-04-08T03:37:17;101588.94;;;6.82;100.00
61908;BME280;47864;52.526;19.672;2023-04-08T03:39:19;101588.00;;;6.83;100.00
61908;BME280;47864;52.526;19.672;2023-04-08T03:41:20;101588.66;;;6.60;100.00
61908;BME280;47864;52.526;19.672;2023-04-08T03:43:22;101595.59;;;6.61;100.00
61908;BME280;47864;52.526;19.672;2023-04-08T03:45:23;101586.91;;;6.73;100.00
61908;BME280;47864;52.526;19.672;2023-04-08T03:47:25;101589.13;;;6.79;100.00
61908;BME280;47864;52.526;19.672;2023-04-08T03:49:27;101587.75;;;6.86;100.00
61908;BME280;47864;52.526;19.672;2023-04-08T03:51:29;101595.25;;;6.92;100.00
61908;BME280;47864;52.526;19.672;2023-04-08T03:53:30;101600.66;;;6.91;100.00
61908;BME280;47864;52.526;19.672;2023-04-08T03:55:31;101604.47;;;6.99;100.00
61908;BME280;47864;52.526;19.672;2023-04-08T03:57:33;101608.41;;;6.67;100.00
61908;BME280;47864;52.526;19.672;2023-04-08T03:59:34;101603.19;;;6.53;100.00
61908;BME280;47864;52.526;19.672;2023-04-08T04:01:36;101614.88;;;6.48;100.00
61908;BME280;47864;52.526;19.672;2023-04-08T04:03:37;101606.13;;;6.48;100.00
61908;BME280;47864;52.526;19.672;2023-04-08T04:05:39;101607.81;;;6.49;100.00
61908;BME280;47864;52.526;19.672;2023-04-08T04:07:41;101606.25;;;6.59;100.00
61908;BME280;47864;52.526;19.672;2023-04-08T04:09:42;101613.34;;;6.59;100.00
61908;BME280;47864;52.526;19.672;2023-04-08T04:11:44;101620.50;;;6.57;100.00
61908;BME280;47864;52.526;19.672;2023-04-08T04:13:45;101623.63;;;6.49;100.00
61908;BME280;47864;52.526;19.672;2023-04-08T04:15:47;101630.63;;;6.63;100.00
61908;BME280;47864;52.526;19.672;2023-04-08T04:17:48;101628.53;;;6.68;100.00
61908;BME280;47864;52.526;19.672;2023-04-08T04:19:50;101637.94;;;6.45;100.00
61908;BME280;47864;52.526;19.672;2023-04-08T04:21:52;101643.75;;;6.23;100.00
61908;BME280;47864;52.526;19.672;2023-04-08T04:23:53;101645.59;;;6.35;100.00
61908;BME280;47864;52.526;19.672;2023-04-08T04:25:55;101653.63;;;6.34;100.00
61908;BME280;47864;52.526;19.672;2023-04-08T04:27:57;101653.22;;;6.40;100.00
61908;BME280;47864;52.526;19.672;2023-04-08T04:29:59;101645.84;;;6.45;100.00
61908;BME280;47864;52.526;19.672;2023-04-08T04:32:01;101649.31;;;6.45;100.00
61908;BME280;47864;52.526;19.672;2023-04-08T04:34:03;101661.72;;;6.58;100.00
61908;BME280;47864;52.526;19.672;2023-04-08T04:36:04;101660.03;;;6.83;100.00
61908;BME280;47864;52.526;19.672;2023-04-08T04:38:06;101670.00;;;6.66;100.00
61908;BME280;47864;52.526;19.672;2023-04-08T04:40:07;101666.84;;;6.73;100.00
61908;BME280;47864;52.526;19.672;2023-04-08T04:42:09;101669.25;;;6.91;100.00
61908;BME280;47864;52.526;19.672;2023-04-08T04:44:10;101672.97;;;6.74;100.00
61908;BME280;47864;52.526;19.672;2023-04-08T04:46:12;101670.47;;;6.85;100.00
61908;BME280;47864;52.526;19.672;2023-04-08T04:48:13;101669.59;;;7.11;100.00
61908;BME280;47864;52.526;19.672;2023-04-08T04:50:15;101675.25;;;7.57;100.00
61908;BME280;47864;52.526;19.672;2023-04-08T04:52:16;101674.78;;;8.14;100.00
61908;BME280;47864;52.526;19.672;2023-04-08T04:54:18;101679.78;;;8.79;100.00
61908;BME280;47864;52.526;19.672;2023-04-08T04:56:19;101668.25;;;9.15;100.00
61908;BME280;47864;52.526;19.672;2023-04-08T04:58:21;101677.16;;;9.60;100.00
61908;BME280;47864;52.526;19.672;2023-04-08T05:00:23;101670.91;;;9.83;100.00
61908;BME280;47864;52.526;19.672;2023-04-08T05:02:24;101680.47;;;9.29;100.00
61908;BME280;47864;52.526;19.672;2023-04-08T05:04:26;101686.31;;;8.62;100.00
61908;BME280;47864;52.526;19.672;2023-04-08T05:06:28;101682.47;;;8.90;100.00
61908;BME280;47864;52.526;19.672;2023-04-08T05:08:29;101683.81;;;9.20;100.00
61908;BME280;47864;52.526;19.672;2023-04-08T05:10:31;101680.66;;;9.61;100.00
61908;BME280;47864;52.526;19.672;2023-04-08T05:12:33;101682.03;;;9.31;98.52
61908;BME280;47864;52.526;19.672;2023-04-08T05:14:34;101686.75;;;10.18;97.88
61908;BME280;47864;52.526;19.672;2023-04-08T05:16:36;101678.16;;;10.04;98.57
61908;BME280;47864;52.526;19.672;2023-04-08T05:18:38;101686.34;;;10.45;95.95
61908;BME280;47864;52.526;19.672;2023-04-08T05:20:39;101681.94;;;11.51;88.74
61908;BME280;47864;52.526;19.672;2023-04-08T05:22:41;101686.41;;;11.30;80.74
61908;BME280;47864;52.526;19.672;2023-04-08T05:24:42;101680.06;;;11.42;82.98
61908;BME280;47864;52.526;19.672;2023-04-08T05:26:44;101677.44;;;11.72;79.83
61908;BME280;47864;52.526;19.672;2023-04-08T05:28:46;101679.09;;;11.85;80.21
61908;BME280;47864;52.526;19.672;2023-04-08T05:30:49;101685.16;;;12.36;77.99
61908;BME280;47864;52.526;19.672;2023-04-08T05:32:50;101688.13;;;12.03;75.00
61908;BME280;47864;52.526;19.672;2023-04-08T05:34:52;101684.09;;;11.04;82.50
61908;BME280;47864;52.526;19.672;2023-04-08T05:36:53;101691.47;;;11.33;81.21
61908;BME280;47864;52.526;19.672;2023-04-08T05:38:55;101688.09;;;11.31;78.69
61908;BME280;47864;52.526;19.672;2023-04-08T05:40:56;101694.91;;;11.65;77.64
61908;BME280;47864;52.526;19.672;2023-04-08T05:42:58;101694.63;;;11.89;76.08
61908;BME280;47864;52.526;19.672;2023-04-08T05:44:59;101692.19;;;12.07;74.81
61908;BME280;47864;52.526;19.672;2023-04-08T05:47:01;101689.28;;;12.10;76.05
61908;BME280;47864;52.526;19.672;2023-04-08T05:49:02;101688.28;;;11.80;76.38
61908;BME280;47864;52.526;19.672;2023-04-08T05:51:04;101698.50;;;11.75;73.92
61908;BME280;47864;52.526;19.672;2023-04-08T05:53:06;101697.16;;;11.28;75.51
61908;BME280;47864;52.526;19.672;2023-04-08T05:55:07;101697.75;;;11.32;76.75
61908;BME280;47864;52.526;19.672;2023-04-08T05:57:09;101711.97;;;11.10;76.74
61908;BME280;47864;52.526;19.672;2023-04-08T05:59:11;101707.16;;;11.57;74.11
61908;BME280;47864;52.526;19.672;2023-04-08T06:01:12;101705.00;;;12.23;73.28
61908;BME280;47864;52.526;19.672;2023-04-08T06:03:14;101710.38;;;12.32;71.37
61908;BME280;47864;52.526;19.672;2023-04-08T06:05:18;101712.47;;;12.38;71.04
61908;BME280;47864;52.526;19.672;2023-04-08T06:07:19;101718.72;;;12.28;71.96
61908;BME280;47864;52.526;19.672;2023-04-08T06:09:21;101718.38;;;12.42;71.40
61908;BME280;47864;52.526;19.672;2023-04-08T06:11:23;101720.78;;;12.54;68.03
61908;BME280;47864;52.526;19.672;2023-04-08T06:13:24;101717.78;;;12.88;67.12
61908;BME280;47864;52.526;19.672;2023-04-08T06:15:26;101731.44;;;13.14;68.10
61908;BME280;47864;52.526;19.672;2023-04-08T06:17:27;101726.47;;;12.90;68.64
61908;BME280;47864;52.526;19.672;2023-04-08T06:19:29;101726.03;;;12.75;67.95
61908;BME280;47864;52.526;19.672;2023-04-08T06:21:30;101728.09;;;12.62;70.01
61908;BME280;47864;52.526;19.672;2023-04-08T06:23:32;101736.50;;;12.57;70.96
61908;BME280;47864;52.526;19.672;2023-04-08T06:25:33;101728.84;;;12.93;67.70
61908;BME280;47864;52.526;19.672;2023-04-08T06:27:35;101732.91;;;12.38;68.99
61908;BME280;47864;52.526;19.672;2023-04-08T06:29:37;101731.53;;;12.34;68.88
61908;BME280;47864;52.526;19.672;2023-04-08T06:31:38;101741.53;;;12.61;68.45
61908;BME280;47864;52.526;19.672;2023-04-08T06:33:40;101740.22;;;12.45;69.41
61908;BME280;47864;52.526;19.672;2023-04-08T06:35:41;101753.34;;;12.68;66.75
61908;BME280;47864;52.526;19.672;2023-04-08T06:37:43;101746.69;;;12.43;68.68
61908;BME280;47864;52.526;19.672;2023-04-08T06:39:44;101742.34;;;12.42;67.79
61908;BME280;47864;52.526;19.672;2023-04-08T06:41:46;101756.16;;;12.76;66.38
61908;BME280;47864;52.526;19.672;2023-04-08T06:43:47;101749.47;;;12.91;64.77
61908;BME280;47864;52.526;19.672;2023-04-08T06:45:49;101749.47;;;12.91;65.11
61908;BME280;47864;52.526;19.672;2023-04-08T06:47:51;101759.91;;;12.64;64.82
61908;BME280;47864;52.526;19.672;2023-04-08T06:49:52;101761.81;;;12.92;65.30
61908;BME280;47864;52.526;19.672;2023-04-08T06:51:54;101748.97;;;12.57;65.61
61908;BME280;47864;52.526;19.672;2023-04-08T06:53:55;101752.38;;;11.77;69.33
61908;BME280;47864;52.526;19.672;2023-04-08T06:55:57;101758.88;;;12.15;69.44
61908;BME280;47864;52.526;19.672;2023-04-08T06:57:58;101756.44;;;12.73;66.95
61908;BME280;47864;52.526;19.672;2023-04-08T07:00:00;101754.91;;;12.40;67.53
61908;BME280;47864;52.526;19.672;2023-04-08T07:02:01;101755.59;;;12.32;68.34
61908;BME280;47864;52.526;19.672;2023-04-08T07:04:03;101761.09;;;12.90;67.46
61908;BME280;47864;52.526;19.672;2023-04-08T07:06:04;101765.59;;;12.99;63.73
61908;BME280;47864;52.526;19.672;2023-04-08T07:08:07;101769.66;;;13.03;64.73
61908;BME280;47864;52.526;19.672;2023-04-08T07:10:08;101768.47;;;12.77;62.28
61908;BME280;47864;52.526;19.672;2023-04-08T07:12:11;101771.66;;;12.51;65.69
61908;BME280;47864;52.526;19.672;2023-04-08T07:14:13;101773.81;;;12.86;65.59
61908;BME280;47864;52.526;19.672;2023-04-08T07:16:15;101770.13;;;13.18;63.19
61908;BME280;47864;52.526;19.672;2023-04-08T07:18:16;101769.75;;;13.42;65.14
61908;BME280;47864;52.526;19.672;2023-04-08T07:20:18;101764.75;;;12.99;64.95
61908;BME280;47864;52.526;19.672;2023-04-08T07:22:19;101768.66;;;12.94;64.53
61908;BME280;47864;52.526;19.672;2023-04-08T07:24:21;101778.56;;;13.23;66.54
61908;BME280;47864;52.526;19.672;2023-04-08T07:26:22;101776.00;;;13.89;64.15
61908;BME280;47864;52.526;19.672;2023-04-08T07:28:24;101774.19;;;13.70;63.31
61908;BME280;47864;52.526;19.672;2023-04-08T07:30:25;101779.38;;;13.62;63.84
61908;BME280;47864;52.526;19.672;2023-04-08T07:32:27;101778.06;;;13.95;59.96
61908;BME280;47864;52.526;19.672;2023-04-08T07:34:29;101772.47;;;13.11;64.48
61908;BME280;47864;52.526;19.672;2023-04-08T07:36:30;101785.28;;;13.27;62.58
61908;BME280;47864;52.526;19.672;2023-04-08T07:38:32;101777.06;;;14.05;61.52
61908;BME280;47864;52.526;19.672;2023-04-08T07:40:33;101782.91;;;13.43;61.97
61908;BME280;47864;52.526;19.672;2023-04-08T07:42:35;101783.66;;;14.11;61.12
61908;BME280;47864;52.526;19.672;2023-04-08T07:44:36;101786.09;;;13.76;60.61
61908;BME280;47864;52.526;19.672;2023-04-08T07:46:38;101779.78;;;13.77;63.63
61908;BME280;47864;52.526;19.672;2023-04-08T07:48:40;101780.97;;;14.11;64.09
61908;BME280;47864;52.526;19.672;2023-04-08T07:50:41;101785.94;;;13.96;60.56
61908;BME280;47864;52.526;19.672;2023-04-08T07:53:03;101787.97;;;13.46;64.36
61908;BME280;47864;52.526;19.672;2023-04-08T07:55:05;101785.97;;;13.67;64.39
61908;BME280;47864;52.526;19.672;2023-04-08T07:57:06;101788.09;;;13.74;62.53
61908;BME280;47864;52.526;19.672;2023-04-08T07:59:08;101785.84;;;13.21;63.01
61908;BME280;47864;52.526;19.672;2023-04-08T08:01:20;101790.34;;;13.30;64.55
61908;BME280;47864;52.526;19.672;2023-04-08T08:03:21;101788.41;;;13.42;62.88
61908;BME280;47864;52.526;19.672;2023-04-08T08:05:23;101790.91;;;13.72;62.14
61908;BME280;47864;52.526;19.672;2023-04-08T08:07:25;101791.03;;;13.61;63.65
61908;BME280;47864;52.526;19.672;2023-04-08T08:09:26;101786.13;;;13.56;64.18
61908;BME280;47864;52.526;19.672;2023-04-08T08:11:28;101794.41;;;13.24;62.21
61908;BME280;47864;52.526;19.672;2023-04-08T08:13:29;101798.13;;;13.12;61.20
61908;BME280;47864;52.526;19.672;2023-04-08T08:15:31;101787.97;;;13.17;64.00
61908;BME280;47864;52.526;19.672;2023-04-08T08:17:33;101801.75;;;13.02;62.43
61908;BME280;47864;52.526;19.672;2023-04-08T08:19:34;101790.00;;;13.04;65.48
61908;BME280;47864;52.526;19.672;2023-04-08T08:21:36;101779.41;;;12.74;64.83
61908;BME280;47864;52.526;19.672;2023-04-08T08:23:37;101796.56;;;12.90;65.40
61908;BME280;47864;52.526;19.672;2023-04-08T08:25:39;101793.44;;;12.76;65.10
61908;BME280;47864;52.526;19.672;2023-04-08T08:27:40;101792.91;;;12.91;65.99
61908;BME280;47864;52.526;19.672;2023-04-08T08:29:42;101774.31;;;13.01;66.20
61908;BME280;47864;52.526;19.672;2023-04-08T08:31:43;101789.72;;;13.07;65.67
61908;BME280;47864;52.526;19.672;2023-04-08T08:33:45;101786.06;;;12.99;66.89
61908;BME280;47864;52.526;19.672;2023-04-08T08:35:46;101780.81;;;12.68;64.33
61908;BME280;47864;52.526;19.672;2023-04-08T08:37:48;101783.41;;;12.99;67.80
61908;BME280;47864;52.526;19.672;2023-04-08T08:39:49;101788.84;;;12.97;66.53
61908;BME280;47864;52.526;19.672;2023-04-08T08:41:51;101786.47;;;13.04;66.09
61908;BME280;47864;52.526;19.672;2023-04-08T08:43:52;101774.91;;;13.43;65.73
61908;BME280;47864;52.526;19.672;2023-04-08T08:45:54;101773.50;;;13.29;64.43
61908;BME280;47864;52.526;19.672;2023-04-08T08:47:56;101781.06;;;13.44;66.96
61908;BME280;47864;52.526;19.672;2023-04-08T08:49:58;101774.91;;;13.43;64.64
61908;BME280;47864;52.526;19.672;2023-04-08T08:51:59;101772.94;;;13.36;64.76
61908;BME280;47864;52.526;19.672;2023-04-08T08:54:01;101777.16;;;13.57;65.98
61908;BME280;47864;52.526;19.672;2023-04-08T08:56:08;101762.56;;;13.61;63.11
61908;BME280;47864;52.526;19.672;2023-04-08T08:58:12;101781.44;;;12.91;65.71
61908;BME280;47864;52.526;19.672;2023-04-08T09:00:14;101777.13;;;13.09;67.89
61908;BME280;47864;52.526;19.672;2023-04-08T09:02:28;101780.09;;;13.25;64.04
61908;BME280;47864;52.526;19.672;2023-04-08T09:04:30;101780.50;;;13.21;65.97
61908;BME280;47864;52.526;19.672;2023-04-08T09:06:32;101777.84;;;13.30;67.97
61908;BME280;47864;52.526;19.672;2023-04-08T09:08:35;101780.66;;;13.48;65.22
61908;BME280;47864;52.526;19.672;2023-04-08T09:10:37;101779.66;;;13.78;64.59
61908;BME280;47864;52.526;19.672;2023-04-08T09:12:54;101785.28;;;13.75;64.93
61908;BME280;47864;52.526;19.672;2023-04-08T09:15:08;101778.09;;;13.85;65.56
61908;BME280;47864;52.526;19.672;2023-04-08T09:17:10;101783.03;;;13.61;64.96
61908;BME280;47864;52.526;19.672;2023-04-08T09:19:11;101789.78;;;13.75;65.90
61908;BME280;47864;52.526;19.672;2023-04-08T09:21:14;101774.31;;;13.78;63.96
61908;BME280;47864;52.526;19.672;2023-04-08T09:23:16;101780.63;;;13.67;65.37
61908;BME280;47864;52.526;19.672;2023-04-08T09:25:33;101787.88;;;14.14;63.73
61908;BME280;47864;52.526;19.672;2023-04-08T09:27:35;101788.63;;;13.77;63.91
61908;BME280;47864;52.526;19.672;2023-04-08T09:29:36;101782.19;;;13.51;64.23
61908;BME280;47864;52.526;19.672;2023-04-08T09:31:40;101787.97;;;13.75;64.11
61908;BME280;47864;52.526;19.672;2023-04-08T09:33:41;101788.63;;;13.77;63.56
61908;BME280;47864;52.526;19.672;2023-04-08T09:35:43;101799.19;;;13.50;64.66
61908;BME280;47864;52.526;19.672;2023-04-08T09:37:45;101791.97;;;14.08;65.15
61908;BME280;47864;52.526;19.672;2023-04-08T09:39:47;101796.13;;;14.39;64.82
61908;BME280;47864;52.526;19.672;2023-04-08T09:41:49;101790.50;;;14.33;62.28
61908;BME280;47864;52.526;19.672;2023-04-08T09:43:52;101794.31;;;14.58;61.60
61908;BME280;47864;52.526;19.672;2023-04-08T09:45:54;101799.81;;;14.83;64.86
61908;BME280;47864;52.526;19.672;2023-04-08T09:48:05;101791.88;;;14.74;60.86
61908;BME280;47864;52.526;19.672;2023-04-08T09:50:10;101776.97;;;14.44;61.14
61908;BME280;47864;52.526;19.672;2023-04-08T09:52:43;101793.16;;;14.70;63.53
61908;BME280;47864;52.526;19.672;2023-04-08T09:57:04;101791.31;;;14.33;62.49
61908;BME280;47864;52.526;19.672;2023-04-08T09:59:17;101784.59;;;14.29;64.06
61908;BME280;47864;52.526;19.672;2023-04-08T10:01:25;101782.16;;;14.45;60.12
61908;BME280;47864;52.526;19.672;2023-04-08T10:03:34;101793.56;;;14.28;60.77
61908;BME280;47864;52.526;19.672;2023-04-08T10:05:40;101784.75;;;14.18;62.71
61908;BME280;47864;52.526;19.672;2023-04-08T10:07:41;101783.47;;;14.32;63.18
61908;BME280;47864;52.526;19.672;2023-04-08T10:09:43;101787.06;;;14.50;61.52
61908;BME280;47864;52.526;19.672;2023-04-08T10:11:45;101787.63;;;14.07;64.60
61908;BME280;47864;52.526;19.672;2023-04-08T10:13:47;101779.63;;;13.97;65.58
61908;BME280;47864;52.526;19.672;2023-04-08T10:15:50;101786.56;;;14.18;63.92
61908;BME280;47864;52.526;19.672;2023-04-08T10:17:55;101789.94;;;14.39;62.94
61908;BME280;47864;52.526;19.672;2023-04-08T10:19:57;101792.06;;;14.63;61.22
61908;BME280;47864;52.526;19.672;2023-04-08T10:21:58;101786.28;;;14.95;61.39
61908;BME280;47864;52.526;19.672;2023-04-08T10:24:00;101788.19;;;15.02;60.97
61908;BME280;47864;52.526;19.672;2023-04-08T10:26:28;101786.06;;;14.51;59.06
61908;BME280;47864;52.526;19.672;2023-04-08T10:28:30;101787.53;;;14.26;66.21
61908;BME280;47864;52.526;19.672;2023-04-08T10:32:39;101747.28;;;14.57;62.24
61908;BME280;47864;52.526;19.672;2023-04-08T10:34:50;101779.94;;;14.68;60.81
61908;BME280;47864;52.526;19.672;2023-04-08T10:36:54;101785.72;;;14.91;62.26
61908;BME280;47864;52.526;19.672;2023-04-08T10:38:56;101780.00;;;14.59;61.27
61908;BME280;47864;52.526;19.672;2023-04-08T10:40:57;101781.22;;;14.27;62.23
61908;BME280;47864;52.526;19.672;2023-04-08T10:42:59;101783.00;;;13.99;63.23